ADDS METAR Data INFO
IDs: Format: Raw Decoded Include TAF

Data at: 1304 UTC 11 Dec 2017

KORB 111255Z AUTO 00000KT 5SM UP BKN017 BKN034 OVC090 M08/M09 A2968 RMK AO2
KORB 111236Z AUTO 00000KT 4SM UP SCT017 BKN032 OVC039 M08/M09 A2967 RMK AO2
KORB 111215Z AUTO 00000KT 2 1/2SM -SN SCT013 SCT023 OVC039 M08/M09 A2967 RMK AO2
KORB 111155Z AUTO 00000KT 2SM -SN SCT009 BKN013 OVC023 M08/M09 A2966 RMK AO2
KORB 111135Z AUTO 14003KT 2SM -SN BKN013 OVC025 M08/M09 A2966 RMK AO2
KORB 111115Z AUTO 14004KT 3SM UP BKN023 OVC032 M08/M10 A2965 RMK AO2
KORB 111055Z AUTO 14004KT 2 1/2SM UP SCT023 OVC030 M08/M10 A2965 RMK AO2
KORB 111035Z AUTO 14004KT 4SM UP BKN021 OVC028 M08/M10 A2966 RMK AO2
KORB 111015Z AUTO 15005KT 7SM UP BKN019 OVC026 M08/M11 A2966 RMK AO2
KORB 110955Z AUTO 14005KT 5SM -SN SCT012 BKN021 OVC031 M08/M11 A2968 RMK AO2
KORB 110935Z AUTO 14005KT 3SM -SN SCT013 SCT022 OVC034 M08/M11 A2969 RMK AO2
KORB 110915Z AUTO 15006KT 4SM UP SCT022 OVC034 M08/M11 A2969 RMK AO2
KORB 110855Z AUTO 14006KT 3SM -SN SCT018 BKN029 OVC039 M09/M11 A2970 RMK AO2
KORB 110835Z AUTO 13004KT 2SM -SN SCT008 BKN012 OVC029 M09/M12 A2971 RMK AO2
KORB 110815Z AUTO 13004KT 2SM -SN SCT008 BKN016 OVC028 M10/M12 A2972 RMK AO2
KORB 110755Z AUTO 12003KT 2 1/2SM -SN SCT017 OVC031 M10/M12 A2973 RMK AO2
KORB 110735Z AUTO 14005KT 2SM -SN BKN017 OVC030 M10/M12 A2974 RMK AO2
KORB 110715Z AUTO 14005KT 2 1/2SM UP SCT015 BKN030 OVC050 M10/M12 A2975 RMK AO2
KORB 110655Z AUTO 14005KT 2 1/2SM -SN BKN013 BKN040 OVC050 M10/M12 A2977 RMK AO2
KORB 110635Z AUTO 15005KT 2 1/2SM -SN BKN015 OVC020 M10/M12 A2978 RMK AO2
KORB 110615Z AUTO 13003KT 5SM -SN SCT020 BKN033 OVC050 M11/M13 A2979 RMK AO2
KORB 110555Z AUTO 12004KT 10SM SCT035 BKN060 OVC075 M11/M13 A2980 RMK AO2
KORB 110535Z AUTO 13003KT 10SM BKN080 OVC095 M11/M14 A2983 RMK AO2
KORB 110515Z AUTO 14003KT 10SM OVC080 M12/M14 A2985 RMK AO2
KORB 110455Z AUTO 14003KT 10SM SCT017 BKN080 M12/M14 A2986 RMK AO2
KORB 110435Z AUTO 00000KT 10SM SCT017 M12/M14 A2986 RMK AO2
KORB 110415Z AUTO 13003KT 10SM CLR M13/M15 A2986 RMK AO2
KORB 110355Z AUTO 00000KT 10SM CLR M13/M15 A2988 RMK AO2
KORB 110335Z AUTO 00000KT 10SM CLR M13/M16 A2988 RMK AO2
KORB 110315Z AUTO 11003KT 10SM CLR M13/M15 A2988 RMK AO2
KORB 110255Z AUTO 12003KT 10SM CLR M13/M15 A2990 RMK AO2
KORB 110235Z AUTO 00000KT 10SM CLR M13/M15 A2991 RMK AO2
KORB 110215Z AUTO 00000KT 10SM SCT019 M13/M16 A2991 RMK AO2
KORB 110155Z AUTO 00000KT 10SM SCT019 M13/M15 A2991 RMK AO2
KORB 110135Z AUTO 00000KT 10SM SCT019 M13/M15 A2992 RMK AO2
KORB 110115Z AUTO 00000KT 10SM OVC019 M13/M15 A2993 RMK AO2
KORB 110055Z AUTO 00000KT 10SM OVC019 M13/M15 A2993 RMK AO2
KORB 110035Z AUTO 00000KT 10SM BKN019 M13/M15 A2993 RMK AO2
KORB 110015Z AUTO 00000KT 10SM BKN019 M13/M14 A2995 RMK AO2
KORB 102355Z AUTO 00000KT 10SM OVC019 M13/M15 A2996 RMK AO2
KORB 102335Z AUTO 00000KT 10SM OVC019 M12/M14 A2997 RMK AO2
KORB 102315Z AUTO 00000KT 10SM -SN BKN019 M12/M14 A2997 RMK AO2
KORB 102255Z AUTO 00000KT 10SM BKN021 M12/M14 A2997 RMK AO2
KORB 102235Z AUTO 00000KT 10SM OVC021 M10/M13 A2998 RMK AO2
KORB 102215Z AUTO 00000KT 10SM OVC021 M09/M14 A2998 RMK AO2
KORB 102155Z AUTO 00000KT 10SM BKN021 M09/M14 A2998 RMK AO2
KORB 102135Z AUTO 00000KT 10SM SCT021 M09/M14 A2997 RMK AO2
KORB 102115Z AUTO 30003KT 10SM BKN021 M09/M14 A2997 RMK AO2
KORB 102056Z AUTO 31004KT 10SM BKN023 M09/M14 A2997 RMK AO2
KORB 102035Z AUTO 29003KT 10SM BKN023 M09/M14 A2996 RMK AO2
KORB 102016Z AUTO 30004KT 10SM BKN023 M09/M14 A2996 RMK AO2
KORB 101955Z AUTO 30005KT 10SM -SN OVC023 M08/M13 A2996 RMK AO2
KORB 101935Z AUTO 30005KT 10SM -SN OVC023 M09/M13 A2996 RMK AO2
KORB 101915Z AUTO 31005KT 10SM -SN OVC021 M09/M13 A2996 RMK AO2
KORB 101855Z AUTO 31005KT 10SM OVC021 M09/M13 A2995 RMK AO2
KORB 101836Z AUTO 30005KT 10SM OVC019 M09/M13 A2995 RMK AO2
KORB 101815Z AUTO 30004KT 10SM -SN OVC019 M09/M13 A2995 RMK AO2
KORB 101755Z AUTO 30005KT 10SM -SN OVC019 M09/M13 A2994 RMK AO2
KORB 101735Z AUTO 31003KT 10SM -SN OVC017 M09/M13 A2994 RMK AO2
KORB 101715Z AUTO 30005KT 10SM -SN OVC015 M09/M13 A2994 RMK AO2
KORB 101655Z AUTO 31006KT 10SM -SN OVC015 M09/M13 A2995 RMK AO2
KORB 101635Z AUTO 31006KT 10SM -SN OVC015 M10/M13 A2995 RMK AO2
KORB 101615Z AUTO 30006KT 10SM OVC015 M10/M13 A2995 RMK AO2
KORB 101555Z AUTO 31004KT 10SM -SN OVC015 M10/M13 A2995 RMK AO2
KORB 101535Z AUTO 31003KT 10SM -SN OVC015 M10/M13 A2994 RMK AO2
KORB 101515Z AUTO 00000KT 7SM -SN OVC015 M10/M14 A2993 RMK AO2
KORB 101455Z AUTO 00000KT 10SM -SN OVC015 M11/M14 A2993 RMK AO2
KORB 101435Z AUTO 34004KT 10SM -SN OVC015 M11/M14 A2992 RMK AO2
KORB 101415Z AUTO 33006KT 10SM -SN OVC013 M11/M14 A2991 RMK AO2
KORB 101355Z AUTO 00000KT 3SM -SN OVC013 M10/M13 A2989 RMK AO2
KORB 101335Z AUTO 32003KT 10SM -SN OVC013 M10/M13 A2988 RMK AO2
KORB 101315Z AUTO 32006KT 10SM -SN OVC013 M10/M13 A2988 RMK AO2
KORB 101255Z AUTO 32004KT 10SM -SN OVC013 M09/M13 A2987 RMK AO2
KORB 101235Z AUTO 00000KT 10SM -SN OVC013 M09/M12 A2986 RMK AO2
KORB 101215Z AUTO 31003KT 10SM OVC013 M09/M12 A2986 RMK AO2
KORB 101155Z AUTO 33004KT 10SM OVC013 M09/M12 A2985 RMK AO2
KORB 101135Z AUTO 33003KT 10SM -SN OVC013 M09/M12 A2984 RMK AO2
KORB 101115Z AUTO 33005KT 10SM OVC013 M09/M12 A2984 RMK AO2
KORB 101055Z AUTO 00000KT 10SM OVC015 M09/M12 A2983 RMK AO2
KORB 101035Z AUTO 32003KT 10SM OVC017 M09/M12 A2983 RMK AO2
KORB 101015Z AUTO 33004KT 10SM OVC017 M08/M11 A2982 RMK AO2
KORB 100955Z AUTO 32004KT 10SM OVC017 M08/M11 A2981 RMK AO2
KORB 100935Z AUTO 33004KT 10SM OVC015 M08/M11 A2980 RMK AO2
KORB 100915Z AUTO 32004KT 10SM OVC017 M08/M12 A2979 RMK AO2
KORB 100855Z AUTO 00000KT 10SM OVC017 M08/M12 A2978 RMK AO2
KORB 100835Z AUTO 00000KT 10SM OVC017 M08/M12 A2977 RMK AO2
KORB 100815Z AUTO 00000KT 10SM OVC017 M08/M12 A2977 RMK AO2
KORB 100755Z AUTO 00000KT 10SM OVC017 M08/M12 A2977 RMK AO2
KORB 100735Z AUTO 00000KT 10SM OVC017 M08/M12 A2976 RMK AO2
KORB 100715Z AUTO 00000KT 10SM OVC017 M08/M12 A2975 RMK AO2
KORB 100655Z AUTO 00000KT 10SM OVC017 M08/M12 A2974 RMK AO2
KORB 100635Z AUTO 00000KT 10SM OVC017 M08/M12 A2974 RMK AO2
KORB 100615Z AUTO 00000KT 10SM OVC019 M08/M12 A2974 RMK AO2
KORB 100555Z AUTO 00000KT 10SM OVC019 M08/M12 A2974 RMK AO2
KORB 100535Z AUTO 00000KT 10SM OVC019 M09/M12 A2974 RMK AO2
KORB 100515Z AUTO 00000KT 10SM OVC019 M09/M12 A2973 RMK AO2
KORB 100455Z AUTO 17003KT 10SM OVC019 M09/M13 A2972 RMK AO2
KORB 100435Z AUTO 16003KT 10SM OVC019 M09/M13 A2972 RMK AO2
KORB 100415Z AUTO 15003KT 10SM OVC021 M09/M13 A2973 RMK AO2
KORB 100355Z AUTO 15003KT 10SM OVC021 M09/M13 A2974 RMK AO2
KORB 100335Z AUTO 00000KT 10SM OVC023 M09/M13 A2975 RMK AO2
KORB 100315Z AUTO 15003KT 10SM OVC023 M09/M13 A2976 RMK AO2
KORB 100255Z AUTO 14003KT 10SM OVC025 M09/M13 A2976 RMK AO2
KORB 100235Z AUTO 14003KT 10SM BKN025 OVC060 M09/M13 A2977 RMK AO2
KORB 100215Z AUTO 17004KT 10SM SCT025 OVC060 M10/M13 A2977 RMK AO2
KORB 100155Z AUTO 17003KT 10SM OVC060 M10/M13 A2978 RMK AO2
KORB 100135Z AUTO 16004KT 10SM SCT070 BKN110 M10/M13 A2979 RMK AO2
KORB 100115Z AUTO 15004KT 10SM SCT070 BKN110 M10/M13 A2979 RMK AO2